Central

26 Stations

Daily Data | America/Los_Angeles
as of 8/9/20 6:35 PM PDT
Station Date Daily Max Temp (°F) Max Temp Time Daily Min Temp (°F) Min Temp Time Dew Pt (°F) Max RH (%) Min RH (%) Wind Spd (mph) Daily Max Wind (mph) Max Wind Dir (°) Max Wind Time Daily Rain (In) Seasonal Rainfall (In) Daily ETo (in) Daily Solar Rad (Cal/cm2) Powdery Mildew Stress (pts)
Healdsburg-South (Sodini) 8/8/20 87.8   2.8 1349 51.9   0.6 0628 53.4   0.2 90   1 35   3 2.9 16.8   0.7 SE | 125 1531 0.00 0.00 - - 40   10
Windsor-NW (Ranch 8) 8/8/20 87.6   2.2 1306 53.3   0.9 0626 54.8   0.3 88   0 38   3 2.2 15.1   0.7 SE | 144 1742 0.00 0.00 0.202   0.007 623   8 10   10
Windsor-East (Ranch 16) 8/8/20 85.1   1.9 1315 51.6   0.4 0622 53.5   0.0 93   0 38   3 2.8 12.7   0.8 S | 176 1555 0.00 0.00 0.203   0.011 615   11 80   20
Mark West-North (Ranch 14) 8/8/20 83.4   2.8 1250 52.2   0.1 0606 53.4   0.2 93   2 38   2 2.4 11.8   0.0 SW | 216 1530 0.00 0.00 0.195   0.009 619   14 60   0
Windsor-SE (Silk Rd) 8/8/20 83.6   4.6 1522 51.0   0.1 0601 53.9   0.0 96   0 41   6 2.1 13.4   0.6 ESE | 108 1715 0.00 0.00 0.194   0.010 616   12 80   20
Fulton-NW (Ranch 5) 8/8/20 83.5   1.8 1250 51.8   0.2 0631 53.9   0.2 96   1 41   3 3.4 14.6   0.1 SSE | 162 1536 0.00 0.01 0.199   0.009 605   10 100   10
Windsor-South (Laughlin Rd) 8/8/20 84.2   3.4 1233 51.7   0.4 0532 - - - - - - - 0.00 0.00 - - 80   20
Fulton-SE (Barnes Rd) 8/8/20 82.7   2.0 1324 52.1   0.0 0641 53.8   0.1 94   1 43   3 2.9 13.0   0.5 SSW | 204 1356 0.00 0.00 - - 70   20
Fulton-SW (Ranch 21) 8/8/20 82.1   3.0 1233 52.4   0.3 0605 53.5   0.3 93   2 41   4 3.1 13.7   0.3 S | 184 1617 0.00 0.01 0.194   0.010 612   9 100   10
Santa Rosa-NW (Goldfields) 8/8/20 81.0   3.0 1227 52.7   0.2 0633 53.8   0.3 93   2 42   4 3.8 19.3   4.3 SSE | 147 1645 0.00 0.01 0.179   0.011 539   8 100   10
NW Santa Rosa (Piner Road) 8/8/20 80.6   2.8 1237 50.3   0.4 0611 53.4   0.3 96   0 44   4 2.2 14.5   1.4 SW | 216 1355 0.00 0.00 - - 90   20
River Rd South (Denner Ranch) 8/8/20 79.2   4.2 1222 50.2   0.0 0610 53.5   0.3 96   0 45   5 5.2 18.2   0.2 SSE | 153 1657 0.00 0.00 - - 100   20
West Santa Rosa (Hawk's Roost) 8/8/20 80.5   3.0 1237 51.0   0.5 0624 53.6   0.3 96   0 43   3 1.9 13.6   0.2 SSW | 197 1410 0.00 0.01 0.165   0.012 515   26 100   10
Guerneville Rd West (Balletto) 8/8/20 79.1   3.8 1222 50.8   1.3 0625 53.7   0.3 94   0 48   5 3.1 15.2   0.7 WSW | 252 1514 0.00 0.02 - - 60   20
Guerneville Rd East (Rich Ranch) 8/8/20 82.8   2.6 1233 51.1   0.7 0629 53.4   0.3 93   0 40   4 - - - - - - - - 100   10
Occidental Rd (Sebastopol) 8/8/20 79.9   4.1 1151 49.8   0.7 0625 52.6   0.3 100   0 42   6 2.9 17.3   0.7 SSW | 193 1512 0.00 0.01 - - 90   20
Lower Westside Rd (Ranch 12) 8/8/20 87.3   0.4 1423 51.0   0.1 0601 54.4   0.0 96   0 38   2 1.7 11.2   2.3 W | 278 1617 0.00 0.00 0.196   0.007 595   8 40   10
Guerneville (Laughlin Rd) 8/8/20 78.6   5.2 1149 50.6   0.6 0628 53.1   0.1 93   1 47   5 2.6 13.6   1.1 SSE | 150 1407 0.00 0.00 - - 100   10
Korbel (Winery) 8/8/20 82.1   2.0 1212 52.9   0.1 0615 53.7   0.5 94   1 41   2 1.9 15.4   1.3 SW | 216 1522 0.00 0.00 - - 100   10
Forestville (Shone Farms) 8/8/20 85.6   2.5 1412 51.0   0.3 0602 54.3   0.1 93   0 41   5 1.8 13.0   0.5 SSE | 150 1508 0.00 0.00 0.207   0.008 658   8 80   20
Forestville-NE (Ranch 30) 8/8/20 84.9   3.2 1418 50.6   0.0 0628 54.4   0.2 94   1 43   6 2.3 15.3   1.6 NW | 316 1538 0.00 0.02 0.205   0.008 639   6 10   10
Graton-West (Dutton Ranch) 8/8/20 80.2   4.7 1209 50.4   0.9 0600 54.4   0.4 100   0 44   6 2.6 13.3   1.8 SSE | 168 1729 0.00 0.00 - - 100   20
Graton-South (Mill Station Rd) 8/8/20 72.8   5.5 1124 48.9   2.1 0620 53.6   1.3 97   0 56   8 3.4 18.5   1.0 WSW | 238 1421 0.00 0.01 - - 50   10
Sexton Valley (Jacqueline's Blk) 8/8/20 72.5   6.2 1124 49.6   2.1 0644 53.7   1.2 96   1 57   9 1.7 16.3   1.7 S | 182 1510 0.00 0.02 - - 70   10
Sebastopol Hills (Burnside Rd) 8/8/20 71.4   4.3 1154 51.9   1.5 0635 53.9   0.7 100   0 60   7 5.0 20.9   2.9 WSW | 257 1451 0.00 0.03 - - 60   10
Seaview/Fort Ross (Hirsch) 8/8/20 70.6   7.1 0101 58.8   0.0 0641 53.9   0.7 81   3 53   10 2.1 8.4   1.0 WSW | 248 1531 0.00 0.02 0.175   0.017 647   3 90   10
Max   87.8 - 58.8 - 54.8 100 60 5.2 20.9 - - 0.00 - 0.207 658 100
Avg   - - - - 53.7 - - 2.8 - - - - - - - -
Min   70.6 - 48.9 - 52.6 81 35 1.7 8.4 - - 0.00 - 0.165 515 10